sensor_id;sensor_type;location;lat;lon;timestamp;P1;durP1;ratioP1;P2;durP2;ratioP2
35646;SDS011;28680;45.642;13.756;2022-11-15T00:00:54;10.25;;;5.88;;
35646;SDS011;28680;45.642;13.756;2022-11-15T00:03:21;9.13;;;6.00;;
35646;SDS011;28680;45.642;13.756;2022-11-15T00:05:52;11.88;;;6.45;;
35646;SDS011;28680;45.642;13.756;2022-11-15T00:08:18;10.80;;;6.10;;
35646;SDS011;28680;45.642;13.756;2022-11-15T00:10:54;9.98;;;6.45;;
35646;SDS011;28680;45.642;13.756;2022-11-15T00:13:21;10.18;;;6.50;;
35646;SDS011;28680;45.642;13.756;2022-11-15T00:15:47;9.57;;;5.82;;
35646;SDS011;28680;45.642;13.756;2022-11-15T00:18:13;9.45;;;6.13;;
35646;SDS011;28680;45.642;13.756;2022-11-15T00:20:40;11.15;;;6.60;;
35646;SDS011;28680;45.642;13.756;2022-11-15T00:23:06;10.55;;;6.47;;
35646;SDS011;28680;45.642;13.756;2022-11-15T00:25:32;11.35;;;6.45;;
35646;SDS011;28680;45.642;13.756;2022-11-15T00:27:59;10.60;;;7.07;;
35646;SDS011;28680;45.642;13.756;2022-11-15T00:30:25;10.02;;;6.57;;
35646;SDS011;28680;45.642;13.756;2022-11-15T00:32:52;10.10;;;6.05;;
35646;SDS011;28680;45.642;13.756;2022-11-15T00:35:19;11.15;;;6.18;;
35646;SDS011;28680;45.642;13.756;2022-11-15T00:37:45;10.13;;;6.05;;
35646;SDS011;28680;45.642;13.756;2022-11-15T00:40:12;10.48;;;6.35;;
35646;SDS011;28680;45.642;13.756;2022-11-15T00:42:39;11.50;;;6.68;;
35646;SDS011;28680;45.642;13.756;2022-11-15T00:45:07;11.32;;;6.55;;
35646;SDS011;28680;45.642;13.756;2022-11-15T00:47:34;11.52;;;6.80;;
35646;SDS011;28680;45.642;13.756;2022-11-15T00:50:00;9.57;;;6.32;;
35646;SDS011;28680;45.642;13.756;2022-11-15T00:52:25;10.63;;;6.60;;
35646;SDS011;28680;45.642;13.756;2022-11-15T00:54:51;10.23;;;6.20;;
35646;SDS011;28680;45.642;13.756;2022-11-15T00:57:17;12.80;;;6.68;;
35646;SDS011;28680;45.642;13.756;2022-11-15T00:59:43;9.60;;;6.13;;
35646;SDS011;28680;45.642;13.756;2022-11-15T01:02:09;11.38;;;6.90;;
35646;SDS011;28680;45.642;13.756;2022-11-15T01:04:35;11.07;;;6.97;;
35646;SDS011;28680;45.642;13.756;2022-11-15T01:07:01;10.60;;;6.72;;
35646;SDS011;28680;45.642;13.756;2022-11-15T01:09:27;9.20;;;6.05;;
35646;SDS011;28680;45.642;13.756;2022-11-15T01:11:52;9.77;;;6.00;;
35646;SDS011;28680;45.642;13.756;2022-11-15T01:14:18;10.30;;;6.78;;
35646;SDS011;28680;45.642;13.756;2022-11-15T01:16:44;11.18;;;6.88;;
35646;SDS011;28680;45.642;13.756;2022-11-15T01:19:10;13.63;;;7.28;;
35646;SDS011;28680;45.642;13.756;2022-11-15T01:21:36;9.88;;;6.63;;
35646;SDS011;28680;45.642;13.756;2022-11-15T01:24:02;11.77;;;7.07;;
35646;SDS011;28680;45.642;13.756;2022-11-15T01:26:28;11.23;;;6.68;;
35646;SDS011;28680;45.642;13.756;2022-11-15T01:28:54;9.48;;;6.43;;
35646;SDS011;28680;45.642;13.756;2022-11-15T01:31:20;11.00;;;6.55;;
35646;SDS011;28680;45.642;13.756;2022-11-15T01:33:47;9.82;;;6.05;;
35646;SDS011;28680;45.642;13.756;2022-11-15T01:36:14;10.00;;;6.57;;
35646;SDS011;28680;45.642;13.756;2022-11-15T01:38:52;11.38;;;6.55;;
35646;SDS011;28680;45.642;13.756;2022-11-15T01:41:21;10.95;;;6.75;;
35646;SDS011;28680;45.642;13.756;2022-11-15T01:43:51;9.93;;;6.30;;
35646;SDS011;28680;45.642;13.756;2022-11-15T01:49:16;13.30;;;7.05;;
35646;SDS011;28680;45.642;13.756;2022-11-15T01:51:46;10.68;;;6.40;;
35646;SDS011;28680;45.642;13.756;2022-11-15T01:54:14;10.88;;;6.93;;
35646;SDS011;28680;45.642;13.756;2022-11-15T01:56:47;12.38;;;7.22;;
35646;SDS011;28680;45.642;13.756;2022-11-15T01:59:22;12.75;;;6.90;;
35646;SDS011;28680;45.642;13.756;2022-11-15T02:01:48;9.82;;;6.13;;
35646;SDS011;28680;45.642;13.756;2022-11-15T02:04:16;8.63;;;5.90;;
35646;SDS011;28680;45.642;13.756;2022-11-15T02:06:48;10.30;;;6.28;;
35646;SDS011;28680;45.642;13.756;2022-11-15T02:09:14;9.77;;;5.75;;
35646;SDS011;28680;45.642;13.756;2022-11-15T02:11:41;10.85;;;6.47;;
35646;SDS011;28680;45.642;13.756;2022-11-15T02:14:08;11.10;;;6.35;;
35646;SDS011;28680;45.642;13.756;2022-11-15T02:16:44;9.77;;;6.15;;
35646;SDS011;28680;45.642;13.756;2022-11-15T02:20:04;10.05;;;6.10;;
35646;SDS011;28680;45.642;13.756;2022-11-15T02:23:13;9.10;;;6.50;;
35646;SDS011;28680;45.642;13.756;2022-11-15T02:29:24;12.68;;;7.45;;
35646;SDS011;28680;45.642;13.756;2022-11-15T02:43:12;11.52;;;7.00;;
35646;SDS011;28680;45.642;13.756;2022-11-15T02:46:59;11.10;;;6.93;;
35646;SDS011;28680;45.642;13.756;2022-11-15T02:49:30;10.90;;;7.28;;
35646;SDS011;28680;45.642;13.756;2022-11-15T02:51:59;12.10;;;7.28;;
35646;SDS011;28680;45.642;13.756;2022-11-15T02:54:28;11.45;;;7.10;;
35646;SDS011;28680;45.642;13.756;2022-11-15T02:57:05;11.13;;;6.53;;
35646;SDS011;28680;45.642;13.756;2022-11-15T02:59:50;9.60;;;6.05;;
35646;SDS011;28680;45.642;13.756;2022-11-15T03:08:39;9.30;;;5.78;;
35646;SDS011;28680;45.642;13.756;2022-11-15T03:11:17;8.68;;;5.60;;
35646;SDS011;28680;45.642;13.756;2022-11-15T03:21:41;10.35;;;5.78;;
35646;SDS011;28680;45.642;13.756;2022-11-15T03:24:08;8.07;;;5.50;;
35646;SDS011;28680;45.642;13.756;2022-11-15T03:26:35;9.93;;;5.72;;
35646;SDS011;28680;45.642;13.756;2022-11-15T03:29:14;9.25;;;6.00;;
35646;SDS011;28680;45.642;13.756;2022-11-15T03:31:48;8.55;;;6.00;;
35646;SDS011;28680;45.642;13.756;2022-11-15T03:34:32;9.60;;;5.75;;
35646;SDS011;28680;45.642;13.756;2022-11-15T03:37:04;8.40;;;5.65;;
35646;SDS011;28680;45.642;13.756;2022-11-15T03:39:32;8.93;;;5.72;;
35646;SDS011;28680;45.642;13.756;2022-11-15T03:47:29;9.95;;;5.82;;
35646;SDS011;28680;45.642;13.756;2022-11-15T03:50:10;8.25;;;5.55;;
35646;SDS011;28680;45.642;13.756;2022-11-15T03:52:41;8.82;;;5.63;;
35646;SDS011;28680;45.642;13.756;2022-11-15T03:55:10;9.77;;;6.20;;
35646;SDS011;28680;45.642;13.756;2022-11-15T03:57:41;9.57;;;6.05;;
35646;SDS011;28680;45.642;13.756;2022-11-15T04:00:08;9.50;;;6.18;;
35646;SDS011;28680;45.642;13.756;2022-11-15T04:02:34;10.90;;;6.47;;
35646;SDS011;28680;45.642;13.756;2022-11-15T04:05:00;10.02;;;5.85;;
35646;SDS011;28680;45.642;13.756;2022-11-15T04:07:26;9.55;;;5.90;;
35646;SDS011;28680;45.642;13.756;2022-11-15T04:09:52;8.73;;;6.10;;
35646;SDS011;28680;45.642;13.756;2022-11-15T04:12:33;8.25;;;5.78;;
35646;SDS011;28680;45.642;13.756;2022-11-15T04:15:09;8.70;;;5.68;;
35646;SDS011;28680;45.642;13.756;2022-11-15T04:17:41;9.80;;;6.18;;
35646;SDS011;28680;45.642;13.756;2022-11-15T04:20:14;12.10;;;6.15;;
35646;SDS011;28680;45.642;13.756;2022-11-15T04:23:12;9.43;;;6.07;;
35646;SDS011;28680;45.642;13.756;2022-11-15T04:26:03;9.68;;;6.20;;
35646;SDS011;28680;45.642;13.756;2022-11-15T04:28:36;9.93;;;6.20;;
35646;SDS011;28680;45.642;13.756;2022-11-15T04:31:23;10.07;;;6.90;;
35646;SDS011;28680;45.642;13.756;2022-11-15T04:33:49;10.57;;;6.70;;
35646;SDS011;28680;45.642;13.756;2022-11-15T04:36:15;9.63;;;6.28;;
35646;SDS011;28680;45.642;13.756;2022-11-15T04:38:59;9.57;;;6.22;;
35646;SDS011;28680;45.642;13.756;2022-11-15T04:41:25;10.52;;;5.90;;
35646;SDS011;28680;45.642;13.756;2022-11-15T04:43:51;9.18;;;5.95;;
35646;SDS011;28680;45.642;13.756;2022-11-15T04:46:17;11.38;;;5.85;;
35646;SDS011;28680;45.642;13.756;2022-11-15T04:48:42;9.05;;;5.97;;
35646;SDS011;28680;45.642;13.756;2022-11-15T04:51:08;9.48;;;5.78;;
35646;SDS011;28680;45.642;13.756;2022-11-15T04:53:34;9.77;;;6.03;;
35646;SDS011;28680;45.642;13.756;2022-11-15T04:56:00;9.52;;;5.90;;
35646;SDS011;28680;45.642;13.756;2022-11-15T04:58:26;9.05;;;5.60;;
35646;SDS011;28680;45.642;13.756;2022-11-15T05:00:51;8.88;;;5.47;;
35646;SDS011;28680;45.642;13.756;2022-11-15T05:03:17;9.40;;;5.90;;
35646;SDS011;28680;45.642;13.756;2022-11-15T05:06:02;7.95;;;5.25;;
35646;SDS011;28680;45.642;13.756;2022-11-15T05:08:27;9.60;;;6.10;;
35646;SDS011;28680;45.642;13.756;2022-11-15T05:10:53;8.73;;;5.70;;
35646;SDS011;28680;45.642;13.756;2022-11-15T05:13:19;9.48;;;6.18;;
35646;SDS011;28680;45.642;13.756;2022-11-15T05:15:45;10.35;;;6.63;;
35646;SDS011;28680;45.642;13.756;2022-11-15T05:18:12;9.90;;;5.97;;
35646;SDS011;28680;45.642;13.756;2022-11-15T05:20:37;9.57;;;5.93;;
35646;SDS011;28680;45.642;13.756;2022-11-15T05:23:04;9.88;;;5.95;;
35646;SDS011;28680;45.642;13.756;2022-11-15T05:25:29;9.38;;;5.75;;
35646;SDS011;28680;45.642;13.756;2022-11-15T05:27:56;9.70;;;6.10;;
35646;SDS011;28680;45.642;13.756;2022-11-15T05:30:22;9.02;;;5.72;;
35646;SDS011;28680;45.642;13.756;2022-11-15T05:32:47;9.43;;;6.35;;
35646;SDS011;28680;45.642;13.756;2022-11-15T05:35:19;9.90;;;6.43;;
35646;SDS011;28680;45.642;13.756;2022-11-15T05:38:10;9.98;;;6.38;;
35646;SDS011;28680;45.642;13.756;2022-11-15T05:40:36;9.48;;;6.63;;
35646;SDS011;28680;45.642;13.756;2022-11-15T05:43:01;9.20;;;6.18;;
35646;SDS011;28680;45.642;13.756;2022-11-15T05:45:29;8.48;;;5.85;;
35646;SDS011;28680;45.642;13.756;2022-11-15T05:47:57;10.18;;;5.80;;
35646;SDS011;28680;45.642;13.756;2022-11-15T05:50:26;9.00;;;6.28;;
35646;SDS011;28680;45.642;13.756;2022-11-15T05:52:52;11.82;;;6.43;;
35646;SDS011;28680;45.642;13.756;2022-11-15T05:55:20;25.20;;;15.35;;
35646;SDS011;28680;45.642;13.756;2022-11-15T05:57:46;11.07;;;6.90;;
35646;SDS011;28680;45.642;13.756;2022-11-15T06:00:12;9.63;;;6.57;;
35646;SDS011;28680;45.642;13.756;2022-11-15T06:02:38;10.40;;;6.57;;
35646;SDS011;28680;45.642;13.756;2022-11-15T06:05:05;10.52;;;6.20;;
35646;SDS011;28680;45.642;13.756;2022-11-15T06:07:31;8.50;;;6.10;;
35646;SDS011;28680;45.642;13.756;2022-11-15T06:09:57;9.80;;;6.60;;
35646;SDS011;28680;45.642;13.756;2022-11-15T06:12:22;9.30;;;6.15;;
35646;SDS011;28680;45.642;13.756;2022-11-15T06:14:48;10.25;;;6.30;;
35646;SDS011;28680;45.642;13.756;2022-11-15T06:17:14;9.40;;;6.63;;
35646;SDS011;28680;45.642;13.756;2022-11-15T06:19:40;9.43;;;6.28;;
35646;SDS011;28680;45.642;13.756;2022-11-15T06:22:06;11.15;;;6.97;;
35646;SDS011;28680;45.642;13.756;2022-11-15T06:24:32;10.73;;;7.18;;
35646;SDS011;28680;45.642;13.756;2022-11-15T06:26:57;11.25;;;7.07;;
35646;SDS011;28680;45.642;13.756;2022-11-15T06:29:24;11.55;;;6.90;;
35646;SDS011;28680;45.642;13.756;2022-11-15T06:31:50;10.93;;;6.90;;
35646;SDS011;28680;45.642;13.756;2022-11-15T06:34:16;10.80;;;6.78;;
35646;SDS011;28680;45.642;13.756;2022-11-15T06:36:42;9.75;;;6.63;;
35646;SDS011;28680;45.642;13.756;2022-11-15T06:39:08;9.40;;;6.40;;
35646;SDS011;28680;45.642;13.756;2022-11-15T06:41:34;13.40;;;6.97;;
35646;SDS011;28680;45.642;13.756;2022-11-15T06:44:00;12.20;;;7.10;;
35646;SDS011;28680;45.642;13.756;2022-11-15T06:46:27;10.57;;;7.15;;
35646;SDS011;28680;45.642;13.756;2022-11-15T06:48:53;12.38;;;7.20;;
35646;SDS011;28680;45.642;13.756;2022-11-15T06:51:20;10.43;;;6.80;;
35646;SDS011;28680;45.642;13.756;2022-11-15T06:53:45;11.35;;;6.80;;
35646;SDS011;28680;45.642;13.756;2022-11-15T06:56:11;12.55;;;7.38;;
35646;SDS011;28680;45.642;13.756;2022-11-15T06:58:38;11.20;;;6.32;;
35646;SDS011;28680;45.642;13.756;2022-11-15T07:01:04;13.40;;;6.88;;
35646;SDS011;28680;45.642;13.756;2022-11-15T07:03:34;11.95;;;7.00;;
35646;SDS011;28680;45.642;13.756;2022-11-15T07:06:02;9.77;;;6.88;;
35646;SDS011;28680;45.642;13.756;2022-11-15T07:08:29;12.00;;;6.78;;
35646;SDS011;28680;45.642;13.756;2022-11-15T07:10:58;11.38;;;6.80;;
35646;SDS011;28680;45.642;13.756;2022-11-15T07:13:27;11.07;;;6.28;;
35646;SDS011;28680;45.642;13.756;2022-11-15T07:15:57;14.32;;;6.13;;
35646;SDS011;28680;45.642;13.756;2022-11-15T07:18:27;12.57;;;6.40;;
35646;SDS011;28680;45.642;13.756;2022-11-15T07:20:54;8.80;;;6.15;;
35646;SDS011;28680;45.642;13.756;2022-11-15T07:23:20;8.65;;;5.82;;
35646;SDS011;28680;45.642;13.756;2022-11-15T07:25:46;10.23;;;6.82;;
35646;SDS011;28680;45.642;13.756;2022-11-15T07:28:12;10.25;;;6.05;;
35646;SDS011;28680;45.642;13.756;2022-11-15T07:30:38;12.82;;;7.13;;
35646;SDS011;28680;45.642;13.756;2022-11-15T07:33:04;9.63;;;6.38;;
35646;SDS011;28680;45.642;13.756;2022-11-15T07:35:29;13.55;;;6.70;;
35646;SDS011;28680;45.642;13.756;2022-11-15T07:38:02;15.13;;;7.10;;
35646;SDS011;28680;45.642;13.756;2022-11-15T07:40:29;10.80;;;6.03;;
35646;SDS011;28680;45.642;13.756;2022-11-15T07:43:00;16.15;;;6.57;;
35646;SDS011;28680;45.642;13.756;2022-11-15T07:45:28;10.05;;;6.32;;
35646;SDS011;28680;45.642;13.756;2022-11-15T07:47:54;13.65;;;6.50;;
35646;SDS011;28680;45.642;13.756;2022-11-15T07:50:21;14.10;;;6.85;;
35646;SDS011;28680;45.642;13.756;2022-11-15T07:52:53;12.10;;;6.95;;
35646;SDS011;28680;45.642;13.756;2022-11-15T07:55:24;8.00;;;5.88;;
35646;SDS011;28680;45.642;13.756;2022-11-15T07:57:59;8.98;;;6.07;;
35646;SDS011;28680;45.642;13.756;2022-11-15T08:00:30;9.75;;;6.45;;
35646;SDS011;28680;45.642;13.756;2022-11-15T08:03:04;14.13;;;8.73;;
35646;SDS011;28680;45.642;13.756;2022-11-15T08:05:36;9.75;;;6.22;;
35646;SDS011;28680;45.642;13.756;2022-11-15T08:08:06;12.10;;;6.93;;
35646;SDS011;28680;45.642;13.756;2022-11-15T08:10:34;15.07;;;7.88;;
35646;SDS011;28680;45.642;13.756;2022-11-15T08:13:03;11.98;;;7.10;;
35646;SDS011;28680;45.642;13.756;2022-11-15T08:15:36;12.85;;;7.63;;
35646;SDS011;28680;45.642;13.756;2022-11-15T08:18:04;12.82;;;7.28;;
35646;SDS011;28680;45.642;13.756;2022-11-15T08:20:39;11.63;;;7.32;;
35646;SDS011;28680;45.642;13.756;2022-11-15T08:23:06;12.75;;;7.80;;
35646;SDS011;28680;45.642;13.756;2022-11-15T08:25:33;11.88;;;7.00;;
35646;SDS011;28680;45.642;13.756;2022-11-15T08:28:02;13.98;;;7.53;;
35646;SDS011;28680;45.642;13.756;2022-11-15T08:30:33;16.30;;;7.68;;
35646;SDS011;28680;45.642;13.756;2022-11-15T08:33:09;12.88;;;7.25;;
35646;SDS011;28680;45.642;13.756;2022-11-15T08:35:37;18.80;;;7.40;;
35646;SDS011;28680;45.642;13.756;2022-11-15T08:38:05;15.00;;;7.85;;
35646;SDS011;28680;45.642;13.756;2022-11-15T08:40:31;14.52;;;8.10;;
35646;SDS011;28680;45.642;13.756;2022-11-15T08:42:56;21.95;;;8.75;;
35646;SDS011;28680;45.642;13.756;2022-11-15T08:45:23;15.57;;;7.57;;
35646;SDS011;28680;45.642;13.756;2022-11-15T08:47:49;16.60;;;7.40;;
35646;SDS011;28680;45.642;13.756;2022-11-15T08:50:15;14.65;;;6.47;;
35646;SDS011;28680;45.642;13.756;2022-11-15T08:52:41;11.90;;;6.43;;
35646;SDS011;28680;45.642;13.756;2022-11-15T08:55:07;10.02;;;6.22;;
35646;SDS011;28680;45.642;13.756;2022-11-15T08:57:33;11.25;;;6.35;;
35646;SDS011;28680;45.642;13.756;2022-11-15T08:59:59;11.73;;;6.53;;
35646;SDS011;28680;45.642;13.756;2022-11-15T09:02:25;12.52;;;6.47;;
35646;SDS011;28680;45.642;13.756;2022-11-15T09:04:51;12.10;;;6.00;;
35646;SDS011;28680;45.642;13.756;2022-11-15T09:07:17;11.65;;;6.55;;
35646;SDS011;28680;45.642;13.756;2022-11-15T09:09:43;12.65;;;7.30;;
35646;SDS011;28680;45.642;13.756;2022-11-15T09:12:10;9.85;;;6.25;;
35646;SDS011;28680;45.642;13.756;2022-11-15T09:14:36;8.93;;;6.13;;
35646;SDS011;28680;45.642;13.756;2022-11-15T09:17:02;11.13;;;6.68;;
35646;SDS011;28680;45.642;13.756;2022-11-15T09:19:28;9.02;;;6.13;;
35646;SDS011;28680;45.642;13.756;2022-11-15T09:21:54;9.48;;;6.13;;
35646;SDS011;28680;45.642;13.756;2022-11-15T09:24:20;29.02;;;7.75;;
35646;SDS011;28680;45.642;13.756;2022-11-15T09:26:46;13.13;;;6.20;;
35646;SDS011;28680;45.642;13.756;2022-11-15T09:29:14;12.95;;;6.45;;
35646;SDS011;28680;45.642;13.756;2022-11-15T09:31:40;8.93;;;6.35;;
35646;SDS011;28680;45.642;13.756;2022-11-15T09:34:06;12.63;;;6.30;;
35646;SDS011;28680;45.642;13.756;2022-11-15T09:36:32;11.43;;;6.47;;
35646;SDS011;28680;45.642;13.756;2022-11-15T09:38:58;13.23;;;6.55;;
35646;SDS011;28680;45.642;13.756;2022-11-15T09:41:38;12.10;;;6.50;;
35646;SDS011;28680;45.642;13.756;2022-11-15T09:44:39;14.13;;;6.55;;
35646;SDS011;28680;45.642;13.756;2022-11-15T09:50:32;11.80;;;6.55;;
35646;SDS011;28680;45.642;13.756;2022-11-15T09:53:22;13.63;;;7.15;;
35646;SDS011;28680;45.642;13.756;2022-11-15T10:05:14;10.68;;;6.30;;
35646;SDS011;28680;45.642;13.756;2022-11-15T10:10:49;11.52;;;6.70;;
35646;SDS011;28680;45.642;13.756;2022-11-15T10:15:58;12.52;;;6.28;;
35646;SDS011;28680;45.642;13.756;2022-11-15T10:21:38;13.25;;;6.78;;
35646;SDS011;28680;45.642;13.756;2022-11-15T10:24:17;12.30;;;6.95;;
35646;SDS011;28680;45.642;13.756;2022-11-15T10:26:49;13.13;;;6.68;;
35646;SDS011;28680;45.642;13.756;2022-11-15T10:29:19;11.75;;;6.72;;
35646;SDS011;28680;45.642;13.756;2022-11-15T10:31:46;16.05;;;6.47;;
35646;SDS011;28680;45.642;13.756;2022-11-15T10:34:14;11.35;;;6.05;;
35646;SDS011;28680;45.642;13.756;2022-11-15T10:36:47;12.15;;;6.43;;
35646;SDS011;28680;45.642;13.756;2022-11-15T10:39:19;11.32;;;5.70;;
35646;SDS011;28680;45.642;13.756;2022-11-15T10:41:44;11.90;;;6.78;;
35646;SDS011;28680;45.642;13.756;2022-11-15T10:49:32;12.05;;;6.10;;
35646;SDS011;28680;45.642;13.756;2022-11-15T10:54:48;7.47;;;5.10;;
35646;SDS011;28680;45.642;13.756;2022-11-15T10:57:25;7.93;;;5.13;;
35646;SDS011;28680;45.642;13.756;2022-11-15T11:00:41;10.98;;;5.80;;
35646;SDS011;28680;45.642;13.756;2022-11-15T11:03:57;18.33;;;5.65;;
35646;SDS011;28680;45.642;13.756;2022-11-15T11:06:23;9.27;;;5.20;;
35646;SDS011;28680;45.642;13.756;2022-11-15T11:09:04;13.25;;;5.72;;
35646;SDS011;28680;45.642;13.756;2022-11-15T11:11:50;7.97;;;4.85;;
35646;SDS011;28680;45.642;13.756;2022-11-15T11:14:27;8.00;;;5.13;;
35646;SDS011;28680;45.642;13.756;2022-11-15T11:35:19;8.13;;;5.95;;
35646;SDS011;28680;45.642;13.756;2022-11-15T11:37:52;7.18;;;4.72;;
35646;SDS011;28680;45.642;13.756;2022-11-15T11:41:04;7.45;;;4.10;;
35646;SDS011;28680;45.642;13.756;2022-11-15T11:46:38;8.48;;;4.53;;
35646;SDS011;28680;45.642;13.756;2022-11-15T11:52:25;8.23;;;5.20;;
35646;SDS011;28680;45.642;13.756;2022-11-15T11:55:23;6.30;;;4.38;;
35646;SDS011;28680;45.642;13.756;2022-11-15T11:58:16;6.68;;;4.78;;
35646;SDS011;28680;45.642;13.756;2022-11-15T12:09:19;8.70;;;5.13;;
35646;SDS011;28680;45.642;13.756;2022-11-15T12:15:26;9.43;;;5.25;;
35646;SDS011;28680;45.642;13.756;2022-11-15T12:17:59;6.50;;;4.95;;
35646;SDS011;28680;45.642;13.756;2022-11-15T12:20:27;6.22;;;4.43;;
35646;SDS011;28680;45.642;13.756;2022-11-15T12:23:15;6.75;;;4.50;;
35646;SDS011;28680;45.642;13.756;2022-11-15T12:26:36;7.30;;;5.22;;
35646;SDS011;28680;45.642;13.756;2022-11-15T12:29:26;9.25;;;5.43;;
35646;SDS011;28680;45.642;13.756;2022-11-15T12:31:58;8.65;;;5.68;;
35646;SDS011;28680;45.642;13.756;2022-11-15T12:40:03;8.18;;;4.80;;
35646;SDS011;28680;45.642;13.756;2022-11-15T12:45:52;6.78;;;4.80;;
35646;SDS011;28680;45.642;13.756;2022-11-15T12:50:55;7.65;;;4.88;;
35646;SDS011;28680;45.642;13.756;2022-11-15T12:58:55;7.60;;;4.78;;
35646;SDS011;28680;45.642;13.756;2022-11-15T13:04:38;9.82;;;5.60;;
35646;SDS011;28680;45.642;13.756;2022-11-15T13:06:49;8.20;;;5.32;;
35646;SDS011;28680;45.642;13.756;2022-11-15T13:12:03;11.93;;;6.60;;
35646;SDS011;28680;45.642;13.756;2022-11-15T13:14:53;15.77;;;9.07;;
35646;SDS011;28680;45.642;13.756;2022-11-15T13:20:25;14.52;;;9.20;;
35646;SDS011;28680;45.642;13.756;2022-11-15T13:23:01;17.50;;;10.48;;
35646;SDS011;28680;45.642;13.756;2022-11-15T13:31:23;17.25;;;9.23;;
35646;SDS011;28680;45.642;13.756;2022-11-15T13:33:55;13.77;;;8.00;;
35646;SDS011;28680;45.642;13.756;2022-11-15T13:36:32;11.40;;;7.72;;
35646;SDS011;28680;45.642;13.756;2022-11-15T13:39:06;12.35;;;7.85;;
35646;SDS011;28680;45.642;13.756;2022-11-15T13:41:56;10.90;;;6.95;;
35646;SDS011;28680;45.642;13.756;2022-11-15T13:44:28;10.18;;;7.18;;
35646;SDS011;28680;45.642;13.756;2022-11-15T13:47:02;8.73;;;6.13;;
35646;SDS011;28680;45.642;13.756;2022-11-15T13:49:39;10.43;;;7.07;;
35646;SDS011;28680;45.642;13.756;2022-11-15T13:52:10;10.52;;;7.57;;
35646;SDS011;28680;45.642;13.756;2022-11-15T13:54:44;12.60;;;8.07;;
35646;SDS011;28680;45.642;13.756;2022-11-15T13:57:23;13.45;;;7.90;;
35646;SDS011;28680;45.642;13.756;2022-11-15T13:59:54;12.68;;;8.32;;
35646;SDS011;28680;45.642;13.756;2022-11-15T14:02:31;13.40;;;8.07;;
35646;SDS011;28680;45.642;13.756;2022-11-15T14:05:05;13.82;;;7.47;;
35646;SDS011;28680;45.642;13.756;2022-11-15T14:10:37;14.43;;;8.75;;
35646;SDS011;28680;45.642;13.756;2022-11-15T14:13:04;13.38;;;9.13;;
35646;SDS011;28680;45.642;13.756;2022-11-15T14:15:52;12.27;;;8.10;;
35646;SDS011;28680;45.642;13.756;2022-11-15T14:21:19;12.45;;;8.40;;
35646;SDS011;28680;45.642;13.756;2022-11-15T14:23:46;13.52;;;8.52;;
35646;SDS011;28680;45.642;13.756;2022-11-15T14:26:33;12.60;;;8.57;;
35646;SDS011;28680;45.642;13.756;2022-11-15T14:32:14;15.65;;;9.18;;
35646;SDS011;28680;45.642;13.756;2022-11-15T14:34:58;17.88;;;10.35;;
35646;SDS011;28680;45.642;13.756;2022-11-15T14:40:01;18.15;;;10.85;;
35646;SDS011;28680;45.642;13.756;2022-11-15T14:42:29;15.25;;;9.82;;
35646;SDS011;28680;45.642;13.756;2022-11-15T14:44:55;16.33;;;10.05;;
35646;SDS011;28680;45.642;13.756;2022-11-15T14:47:21;16.50;;;10.23;;
35646;SDS011;28680;45.642;13.756;2022-11-15T14:49:46;16.13;;;10.27;;
35646;SDS011;28680;45.642;13.756;2022-11-15T14:55:08;19.83;;;11.10;;
35646;SDS011;28680;45.642;13.756;2022-11-15T15:00:12;19.48;;;11.07;;
35646;SDS011;28680;45.642;13.756;2022-11-15T15:02:39;17.48;;;10.50;;
35646;SDS011;28680;45.642;13.756;2022-11-15T15:05:12;17.10;;;10.30;;
35646;SDS011;28680;45.642;13.756;2022-11-15T15:07:50;15.57;;;10.32;;
35646;SDS011;28680;45.642;13.756;2022-11-15T15:10:18;18.38;;;11.23;;
35646;SDS011;28680;45.642;13.756;2022-11-15T15:12:44;19.90;;;11.32;;
35646;SDS011;28680;45.642;13.756;2022-11-15T15:15:55;17.25;;;9.95;;
35646;SDS011;28680;45.642;13.756;2022-11-15T15:17:59;16.85;;;10.05;;
35646;SDS011;28680;45.642;13.756;2022-11-15T15:20:26;17.42;;;10.20;;
35646;SDS011;28680;45.642;13.756;2022-11-15T15:22:53;17.30;;;10.43;;
35646;SDS011;28680;45.642;13.756;2022-11-15T15:25:21;16.48;;;10.80;;
35646;SDS011;28680;45.642;13.756;2022-11-15T15:27:57;15.85;;;10.68;;
35646;SDS011;28680;45.642;13.756;2022-11-15T15:30:25;17.58;;;10.85;;
35646;SDS011;28680;45.642;13.756;2022-11-15T15:32:53;18.63;;;10.68;;
35646;SDS011;28680;45.642;13.756;2022-11-15T15:38:41;19.13;;;10.90;;
35646;SDS011;28680;45.642;13.756;2022-11-15T15:41:11;16.13;;;9.85;;
35646;SDS011;28680;45.642;13.756;2022-11-15T15:43:38;18.10;;;10.85;;
35646;SDS011;28680;45.642;13.756;2022-11-15T15:46:04;15.93;;;10.32;;
35646;SDS011;28680;45.642;13.756;2022-11-15T15:48:35;18.17;;;10.65;;
35646;SDS011;28680;45.642;13.756;2022-11-15T15:51:02;14.73;;;9.90;;
35646;SDS011;28680;45.642;13.756;2022-11-15T15:53:28;19.65;;;10.55;;
35646;SDS011;28680;45.642;13.756;2022-11-15T15:55:55;17.17;;;10.50;;
35646;SDS011;28680;45.642;13.756;2022-11-15T15:58:21;18.13;;;11.02;;
35646;SDS011;28680;45.642;13.756;2022-11-15T16:00:47;17.83;;;10.30;;
35646;SDS011;28680;45.642;13.756;2022-11-15T16:03:12;17.75;;;11.18;;
35646;SDS011;28680;45.642;13.756;2022-11-15T16:05:38;20.17;;;11.18;;
35646;SDS011;28680;45.642;13.756;2022-11-15T16:08:04;15.70;;;10.32;;
35646;SDS011;28680;45.642;13.756;2022-11-15T16:10:32;17.95;;;10.55;;
35646;SDS011;28680;45.642;13.756;2022-11-15T16:12:59;17.83;;;10.63;;
35646;SDS011;28680;45.642;13.756;2022-11-15T16:15:27;18.80;;;11.13;;
35646;SDS011;28680;45.642;13.756;2022-11-15T16:17:57;19.73;;;12.63;;
35646;SDS011;28680;45.642;13.756;2022-11-15T16:20:38;23.27;;;13.60;;
35646;SDS011;28680;45.642;13.756;2022-11-15T16:23:14;22.15;;;13.82;;
35646;SDS011;28680;45.642;13.756;2022-11-15T16:25:47;25.10;;;14.68;;
35646;SDS011;28680;45.642;13.756;2022-11-15T16:28:22;21.85;;;12.63;;
35646;SDS011;28680;45.642;13.756;2022-11-15T16:31:09;21.95;;;13.45;;
35646;SDS011;28680;45.642;13.756;2022-11-15T16:33:36;21.27;;;12.43;;
35646;SDS011;28680;45.642;13.756;2022-11-15T16:36:04;20.05;;;12.43;;
35646;SDS011;28680;45.642;13.756;2022-11-15T16:38:46;21.55;;;11.93;;
35646;SDS011;28680;45.642;13.756;2022-11-15T16:41:12;20.65;;;11.93;;
35646;SDS011;28680;45.642;13.756;2022-11-15T16:43:38;18.35;;;10.98;;
35646;SDS011;28680;45.642;13.756;2022-11-15T16:46:06;21.65;;;11.23;;
35646;SDS011;28680;45.642;13.756;2022-11-15T16:48:47;16.33;;;10.85;;
35646;SDS011;28680;45.642;13.756;2022-11-15T16:51:14;23.67;;;13.88;;
35646;SDS011;28680;45.642;13.756;2022-11-15T16:53:40;22.20;;;13.70;;
35646;SDS011;28680;45.642;13.756;2022-11-15T16:58:51;28.15;;;15.55;;
35646;SDS011;28680;45.642;13.756;2022-11-15T17:01:30;28.92;;;15.23;;
35646;SDS011;28680;45.642;13.756;2022-11-15T17:04:17;24.52;;;14.13;;
35646;SDS011;28680;45.642;13.756;2022-11-15T17:06:45;24.95;;;15.13;;
35646;SDS011;28680;45.642;13.756;2022-11-15T17:09:13;27.30;;;16.42;;
35646;SDS011;28680;45.642;13.756;2022-11-15T17:11:42;24.70;;;14.52;;
35646;SDS011;28680;45.642;13.756;2022-11-15T17:14:08;24.92;;;14.27;;
35646;SDS011;28680;45.642;13.756;2022-11-15T17:16:36;21.33;;;12.30;;
35646;SDS011;28680;45.642;13.756;2022-11-15T17:19:06;22.27;;;13.73;;
35646;SDS011;28680;45.642;13.756;2022-11-15T17:21:44;23.95;;;12.82;;
35646;SDS011;28680;45.642;13.756;2022-11-15T17:24:11;22.13;;;13.27;;